createdAt,value
2023-02-24T00:01:25.250Z,5.37
2023-02-24T00:03:57.057Z,5.32
2023-02-24T00:06:36.126Z,5.30
2023-02-24T00:09:16.141Z,5.41
2023-02-24T00:11:53.845Z,5.35
2023-02-24T00:14:20.317Z,5.36
2023-02-24T00:16:47.213Z,5.28
2023-02-24T00:19:16.074Z,5.19
2023-02-24T00:21:43.085Z,5.03
2023-02-24T00:24:09.598Z,4.90
2023-02-24T00:26:35.962Z,4.81
2023-02-24T00:29:05.103Z,4.74
2023-02-24T00:31:31.112Z,4.72
2023-02-24T00:34:01.492Z,4.71
2023-02-24T00:36:29.841Z,4.67
2023-02-24T00:39:10.410Z,4.68
2023-02-24T00:41:41.860Z,4.68
2023-02-24T00:44:10.659Z,4.64
2023-02-24T00:46:39.698Z,4.56
2023-02-24T00:49:10.513Z,4.47
2023-02-24T00:51:41.490Z,4.41
2023-02-24T00:54:09.493Z,4.49
2023-02-24T00:56:35.496Z,4.38
2023-02-24T00:59:02.193Z,4.35
2023-02-24T01:01:31.443Z,4.34
2023-02-24T01:03:59.397Z,4.32
2023-02-24T01:06:28.585Z,4.29
2023-02-24T01:08:56.537Z,4.29
2023-02-24T01:11:45.611Z,4.14
2023-02-24T01:14:15.071Z,4.05
2023-02-24T01:16:44.006Z,4.14
2023-02-24T01:19:11.020Z,4.10
2023-02-24T01:21:36.870Z,4.18
2023-02-24T01:24:03.022Z,4.10
2023-02-24T01:26:33.099Z,4.05
2023-02-24T01:28:59.069Z,4.03
2023-02-24T01:31:25.655Z,3.98
2023-02-24T01:33:51.860Z,3.92
2023-02-24T01:36:24.726Z,3.80
2023-02-24T01:38:52.124Z,3.85
2023-02-24T01:41:22.598Z,3.83
2023-02-24T01:43:57.990Z,3.90
2023-02-24T01:46:38.133Z,3.91
2023-02-24T01:49:13.073Z,4.02
2023-02-24T01:51:43.888Z,4.02
2023-02-24T01:54:13.787Z,3.92
2023-02-24T01:56:40.734Z,3.78
2023-02-24T01:59:08.804Z,3.65
2023-02-24T02:01:40.346Z,3.68
2023-02-24T02:04:17.143Z,3.70
2023-02-24T02:06:44.822Z,3.76
2023-02-24T02:09:11.605Z,3.82
2023-02-24T02:11:37.530Z,3.83
2023-02-24T02:14:03.437Z,3.87
2023-02-24T02:16:45.254Z,3.84
2023-02-24T02:19:28.109Z,3.66
2023-02-24T02:22:18.405Z,3.65
2023-02-24T02:24:51.574Z,3.67
2023-02-24T02:27:39.172Z,3.66
2023-02-24T02:30:22.744Z,3.63
2023-02-24T02:32:52.580Z,3.59
2023-02-24T02:35:25.768Z,3.62
2023-02-24T02:38:14.664Z,3.56
2023-02-24T02:40:51.719Z,3.62
2023-02-24T02:43:26.029Z,3.49
2023-02-24T02:45:57.229Z,3.58
2023-02-24T02:48:48.507Z,3.59
2023-02-24T02:51:29.357Z,3.44
2023-02-24T02:54:10.633Z,3.36
2023-02-24T02:56:41.819Z,3.30
2023-02-24T02:59:11.959Z,3.22
2023-02-24T03:01:42.987Z,3.25
2023-02-24T03:04:16.162Z,3.38
2023-02-24T03:06:47.070Z,3.49
2023-02-24T03:09:23.124Z,3.44
2023-02-24T03:11:59.069Z,3.47
2023-02-24T03:14:32.574Z,3.51
2023-02-24T03:16:58.874Z,3.60
2023-02-24T03:19:36.797Z,3.55
2023-02-24T03:22:13.067Z,3.40
2023-02-24T03:24:40.530Z,3.51
2023-02-24T03:27:12.699Z,3.58
2023-02-24T03:29:52.203Z,3.60
2023-02-24T03:32:22.301Z,3.60
2023-02-24T03:35:04.381Z,3.55
2023-02-24T03:37:32.827Z,3.54
2023-02-24T03:40:13.906Z,3.47
2023-02-24T03:42:44.542Z,3.58
2023-02-24T03:45:11.188Z,3.64
2023-02-24T03:47:41.562Z,3.56
2023-02-24T03:50:14.088Z,3.51
2023-02-24T03:53:19.993Z,3.58
2023-02-24T03:55:48.807Z,3.47
2023-02-24T03:58:28.035Z,3.46
2023-02-24T04:00:57.157Z,3.44
2023-02-24T04:03:57.718Z,3.49
2023-02-24T04:06:57.914Z,3.35
2023-02-24T04:09:42.218Z,3.40
2023-02-24T04:12:23.264Z,3.48
2023-02-24T04:15:03.889Z,3.40
2023-02-24T04:17:39.844Z,3.26
2023-02-24T04:20:28.741Z,3.25
2023-02-24T04:23:01.384Z,3.39
2023-02-24T04:25:30.421Z,3.46
2023-02-24T04:27:58.552Z,3.38
2023-02-24T04:30:29.046Z,3.28
2023-02-24T04:32:56.112Z,3.43
2023-02-24T04:35:22.336Z,3.32
2023-02-24T04:37:49.776Z,3.38
2023-02-24T04:40:18.045Z,3.25
2023-02-24T04:42:48.205Z,3.26
2023-02-24T04:45:21.552Z,3.12
2023-02-24T04:47:52.616Z,3.16
2023-02-24T04:50:23.488Z,3.20
2023-02-24T04:52:50.227Z,3.17
2023-02-24T04:55:17.798Z,3.22
2023-02-24T04:57:45.358Z,3.26
2023-02-24T05:00:20.070Z,3.36
2023-02-24T05:02:50.018Z,3.41
2023-02-24T05:05:17.908Z,3.17
2023-02-24T05:07:47.001Z,3.10
2023-02-24T05:10:14.811Z,3.11
2023-02-24T05:12:41.819Z,3.00
2023-02-24T05:15:08.387Z,2.91
2023-02-24T05:17:34.632Z,3.07
2023-02-24T05:20:19.230Z,3.08
2023-02-24T05:22:51.032Z,3.08
2023-02-24T05:25:19.406Z,3.06
2023-02-24T05:27:46.670Z,2.94
2023-02-24T05:30:13.864Z,2.92
2023-02-24T05:32:41.400Z,2.94
2023-02-24T05:35:08.022Z,2.88
2023-02-24T05:37:41.322Z,2.85
2023-02-24T05:40:12.778Z,2.96
2023-02-24T05:42:40.688Z,2.94
2023-02-24T05:45:08.698Z,2.83
2023-02-24T05:47:36.044Z,2.80
2023-02-24T05:50:02.647Z,2.81
2023-02-24T05:52:28.539Z,2.84
2023-02-24T05:54:54.457Z,2.81
2023-02-24T05:57:23.883Z,2.77
2023-02-24T05:59:50.621Z,2.76
2023-02-24T06:02:26.489Z,2.72
2023-02-24T06:04:53.520Z,2.82
2023-02-24T06:07:25.613Z,2.79
2023-02-24T06:09:56.618Z,2.85
2023-02-24T06:12:28.687Z,2.70
2023-02-24T06:14:55.253Z,2.60
2023-02-24T06:17:22.202Z,2.68
2023-02-24T06:19:51.330Z,2.72
2023-02-24T06:22:20.137Z,2.54
2023-02-24T06:24:48.579Z,2.59
2023-02-24T06:27:18.116Z,2.58
2023-02-24T06:29:46.972Z,2.38
2023-02-24T06:32:12.951Z,2.46
2023-02-24T06:34:39.475Z,2.47
2023-02-24T06:37:07.584Z,2.59
2023-02-24T06:39:36.494Z,2.57
2023-02-24T06:42:04.373Z,2.52
2023-02-24T06:44:30.935Z,2.46
2023-02-24T06:46:57.369Z,2.55
2023-02-24T06:49:24.656Z,2.52
2023-02-24T06:51:51.580Z,2.54
2023-02-24T06:54:18.423Z,2.55
2023-02-24T06:56:44.583Z,2.67
2023-02-24T06:59:12.237Z,2.72
2023-02-24T07:01:44.728Z,2.66
2023-02-24T07:04:11.701Z,2.47
2023-02-24T07:06:42.676Z,2.53
2023-02-24T07:09:10.764Z,2.46
2023-02-24T07:11:40.817Z,2.36
2023-02-24T07:14:08.254Z,2.44
2023-02-24T07:16:35.188Z,2.51
2023-02-24T07:19:10.493Z,2.51
2023-02-24T07:21:42.684Z,2.51
2023-02-24T07:24:15.803Z,2.47
2023-02-24T07:26:43.090Z,2.55
2023-02-24T07:29:11.029Z,2.54
2023-02-24T07:31:38.893Z,2.58
2023-02-24T07:34:05.714Z,2.46
2023-02-24T07:36:38.077Z,2.70
2023-02-24T07:39:07.320Z,2.57
2023-02-24T07:41:33.872Z,2.49
2023-02-24T07:44:02.557Z,2.49
2023-02-24T07:46:29.405Z,2.34
2023-02-24T07:48:58.468Z,2.16
2023-02-24T07:51:27.048Z,2.33
2023-02-24T07:53:56.378Z,2.38
2023-02-24T07:56:30.274Z,2.44
2023-02-24T07:59:02.878Z,2.27
2023-02-24T08:01:38.051Z,2.33
2023-02-24T08:04:07.408Z,2.25
2023-02-24T08:06:39.214Z,2.29
2023-02-24T08:09:17.822Z,2.24
2023-02-24T08:11:54.088Z,2.23
2023-02-24T08:14:25.906Z,2.20
2023-02-24T08:16:58.760Z,2.10
2023-02-24T08:19:38.742Z,2.24
2023-02-24T08:22:18.699Z,2.09
2023-02-24T08:25:06.402Z,2.05
2023-02-24T08:27:44.371Z,2.06
2023-02-24T08:30:22.618Z,2.08
2023-02-24T08:32:56.082Z,1.91
2023-02-24T08:35:31.448Z,1.86
2023-02-24T08:38:07.177Z,1.88
2023-02-24T08:40:36.977Z,2.15
2023-02-24T08:43:19.008Z,1.96
2023-02-24T08:46:12.645Z,2.05
2023-02-24T08:48:41.569Z,2.07
2023-02-24T08:51:21.784Z,1.99
2023-02-24T08:53:53.349Z,2.03
2023-02-24T08:56:25.829Z,2.00
2023-02-24T08:59:04.562Z,2.16
2023-02-24T09:01:36.508Z,1.99
2023-02-24T09:04:08.896Z,2.08
2023-02-24T09:06:44.820Z,1.88
2023-02-24T09:09:16.824Z,1.88
2023-02-24T09:11:48.862Z,1.85
2023-02-24T09:14:26.572Z,1.79
2023-02-24T09:17:05.326Z,1.96
2023-02-24T09:19:50.183Z,2.06
2023-02-24T09:22:30.681Z,1.78
2023-02-24T09:25:26.011Z,1.84
2023-02-24T09:28:08.524Z,1.86
2023-02-24T09:30:50.296Z,1.81
2023-02-24T09:33:40.929Z,1.81
2023-02-24T09:36:13.278Z,1.74
2023-02-24T09:39:06.221Z,1.73
2023-02-24T09:41:54.174Z,1.72
2023-02-24T09:44:24.539Z,1.92
2023-02-24T09:46:59.856Z,2.03
2023-02-24T09:49:45.679Z,2.10
2023-02-24T09:52:16.752Z,1.91
2023-02-24T09:55:08.052Z,1.96
2023-02-24T09:58:10.209Z,2.05
2023-02-24T10:00:43.373Z,1.90
2023-02-24T10:03:29.317Z,1.83
2023-02-24T10:05:59.241Z,1.90
2023-02-24T10:08:37.489Z,1.86
2023-02-24T10:11:07.117Z,1.86
2023-02-24T10:13:37.494Z,1.85
2023-02-24T10:16:09.597Z,1.84
2023-02-24T10:19:00.366Z,1.70
2023-02-24T10:21:48.965Z,1.91
2023-02-24T10:24:47.937Z,1.67
2023-02-24T10:27:24.397Z,1.72
2023-02-24T10:30:18.872Z,1.64
2023-02-24T10:32:51.381Z,1.69
2023-02-24T10:35:21.358Z,1.67
2023-02-24T10:37:48.483Z,1.84
2023-02-24T10:40:25.635Z,1.94
2023-02-24T10:43:03.696Z,1.76
2023-02-24T10:45:34.690Z,1.78
2023-02-24T10:48:06.661Z,1.88
2023-02-24T10:50:55.028Z,2.02
2023-02-24T10:53:28.951Z,1.91
2023-02-24T10:56:17.048Z,1.69
2023-02-24T10:58:52.574Z,1.75
2023-02-24T11:01:54.040Z,1.60
2023-02-24T11:04:27.351Z,1.70
2023-02-24T11:07:11.780Z,1.76
2023-02-24T11:09:44.921Z,1.79
2023-02-24T11:12:39.212Z,1.90
2023-02-24T11:15:35.272Z,1.79
2023-02-24T11:18:01.956Z,1.90
2023-02-24T11:20:49.011Z,2.12
2023-02-24T11:23:38.721Z,2.00
2023-02-24T11:26:10.807Z,1.72
2023-02-24T11:28:56.642Z,1.69
2023-02-24T11:31:28.340Z,1.68
2023-02-24T11:34:09.329Z,1.64
2023-02-24T11:36:36.465Z,1.64
2023-02-24T11:39:31.274Z,1.56
2023-02-24T11:42:01.474Z,1.47
2023-02-24T11:44:46.252Z,1.49
2023-02-24T11:47:21.800Z,1.52
2023-02-24T11:49:53.127Z,1.72
2023-02-24T11:52:29.589Z,1.56
2023-02-24T11:54:57.890Z,1.62
2023-02-24T11:57:36.936Z,1.70
2023-02-24T12:00:22.751Z,1.77
2023-02-24T12:03:02.912Z,1.82
2023-02-24T12:05:38.903Z,1.73
2023-02-24T12:08:29.264Z,1.77
2023-02-24T12:11:10.811Z,1.89
2023-02-24T12:13:53.931Z,1.76
2023-02-24T12:16:28.376Z,1.51
2023-02-24T12:19:03.695Z,1.70
2023-02-24T12:21:38.621Z,1.90
2023-02-24T12:24:08.942Z,1.75
2023-02-24T12:27:13.457Z,1.82
2023-02-24T12:29:49.355Z,1.97
2023-02-24T12:32:42.163Z,1.78
2023-02-24T12:35:21.815Z,1.70
2023-02-24T12:37:58.165Z,1.73
2023-02-24T12:40:47.279Z,1.70
2023-02-24T12:43:35.371Z,1.54
2023-02-24T12:46:16.498Z,1.62
2023-02-24T12:49:08.682Z,1.54
2023-02-24T12:51:54.737Z,1.49
2023-02-24T12:54:29.173Z,1.45
2023-02-24T12:57:29.554Z,1.29
2023-02-24T12:59:58.223Z,1.22
2023-02-24T13:02:41.445Z,1.44
2023-02-24T13:05:21.406Z,1.57
2023-02-24T13:08:06.928Z,1.47
2023-02-24T13:10:45.095Z,1.42
2023-02-24T13:13:27.424Z,1.46
2023-02-24T13:15:55.966Z,1.40
2023-02-24T13:18:34.715Z,1.42
2023-02-24T13:21:02.306Z,1.51
2023-02-24T13:23:28.352Z,1.44
2023-02-24T13:25:55.392Z,1.50
2023-02-24T13:28:24.949Z,1.49
2023-02-24T13:31:01.566Z,1.48
2023-02-24T13:33:34.252Z,1.19
2023-02-24T13:36:11.591Z,1.39
2023-02-24T13:38:41.116Z,1.49
2023-02-24T13:41:09.363Z,1.42
2023-02-24T13:43:35.688Z,1.29
2023-02-24T13:46:15.359Z,1.20
2023-02-24T13:48:44.075Z,1.40
2023-02-24T13:51:47.488Z,1.30
2023-02-24T13:54:32.999Z,1.30
2023-02-24T13:57:32.223Z,1.28
2023-02-24T14:00:14.016Z,1.35
2023-02-24T14:02:43.330Z,1.18
2023-02-24T14:05:19.421Z,1.09
2023-02-24T14:07:49.512Z,1.05
2023-02-24T14:10:19.698Z,1.12
2023-02-24T14:12:47.736Z,1.22
2023-02-24T14:15:21.306Z,1.26
2023-02-24T14:18:02.543Z,1.29
2023-02-24T14:20:34.219Z,1.33
2023-02-24T14:23:01.010Z,1.32
2023-02-24T14:25:33.300Z,1.27
2023-02-24T14:27:59.791Z,1.28
2023-02-24T14:30:32.199Z,1.21
2023-02-24T14:32:58.752Z,1.17
2023-02-24T14:35:41.015Z,1.26
2023-02-24T14:38:27.711Z,1.05
2023-02-24T14:40:53.510Z,1.10
2023-02-24T14:43:19.744Z,1.20
2023-02-24T14:45:50.332Z,1.12
2023-02-24T14:48:27.888Z,0.88
2023-02-24T14:51:04.704Z,1.14
2023-02-24T14:53:34.893Z,1.15
2023-02-24T14:56:06.062Z,1.16
2023-02-24T14:58:44.167Z,1.18
2023-02-24T15:01:23.292Z,1.16
2023-02-24T15:03:54.076Z,1.14
2023-02-24T15:06:32.789Z,1.07
2023-02-24T15:09:12.360Z,1.09
2023-02-24T15:11:38.395Z,0.97
2023-02-24T15:14:14.679Z,1.06
2023-02-24T15:16:46.504Z,1.10
2023-02-24T15:19:26.979Z,0.90
2023-02-24T15:21:53.642Z,0.95
2023-02-24T15:24:24.413Z,0.97
2023-02-24T15:26:55.915Z,0.82
2023-02-24T15:29:28.053Z,0.84
2023-02-24T15:31:56.137Z,0.69
2023-02-24T15:34:26.466Z,0.77
2023-02-24T15:36:57.498Z,0.77
2023-02-24T15:39:26.917Z,0.87
2023-02-24T15:42:06.293Z,0.87
2023-02-24T15:44:33.992Z,0.78
2023-02-24T15:47:18.241Z,0.90
2023-02-24T15:49:44.091Z,0.91
2023-02-24T15:52:10.304Z,0.89
2023-02-24T15:54:38.435Z,0.98
2023-02-24T15:57:04.795Z,0.93
2023-02-24T15:59:30.782Z,0.94
2023-02-24T16:01:56.904Z,0.82
2023-02-24T16:04:23.781Z,0.87
2023-02-24T16:06:53.879Z,0.80
2023-02-24T16:09:31.730Z,0.83
2023-02-24T16:11:59.366Z,0.82
2023-02-24T16:14:25.675Z,0.85
2023-02-24T16:16:51.954Z,0.97
2023-02-24T16:19:17.993Z,0.98
2023-02-24T16:21:43.802Z,1.06
2023-02-24T16:24:09.802Z,1.09
2023-02-24T16:26:38.297Z,1.01
2023-02-24T16:29:10.864Z,1.14
2023-02-24T16:31:38.415Z,1.22
2023-02-24T16:34:05.569Z,1.19
2023-02-24T16:36:32.340Z,1.37
2023-02-24T16:38:58.593Z,1.38
2023-02-24T16:41:24.392Z,1.44
2023-02-24T16:43:50.657Z,1.42
2023-02-24T16:46:19.739Z,1.44
2023-02-24T16:48:48.578Z,1.48
2023-02-24T16:51:17.137Z,1.66
2023-02-24T16:53:43.182Z,1.58
2023-02-24T16:56:09.478Z,1.58
2023-02-24T16:58:35.431Z,1.44
2023-02-24T17:01:03.635Z,1.37
2023-02-24T17:03:44.234Z,1.40
2023-02-24T17:06:10.253Z,1.49
2023-02-24T17:08:36.383Z,1.47
2023-02-24T17:11:02.746Z,1.60
2023-02-24T17:13:28.680Z,1.56
2023-02-24T17:15:56.566Z,1.71
2023-02-24T17:18:26.204Z,1.64
2023-02-24T17:20:52.846Z,1.74
2023-02-24T17:23:19.062Z,1.73
2023-02-24T17:25:49.480Z,1.80
2023-02-24T17:28:15.408Z,1.71
2023-02-24T17:30:42.300Z,1.79
2023-02-24T17:33:08.231Z,1.83
2023-02-24T17:35:34.521Z,1.91
2023-02-24T17:38:00.669Z,1.93
2023-02-24T17:40:26.838Z,1.90
2023-02-24T17:42:52.730Z,2.02
2023-02-24T17:45:19.377Z,2.13
2023-02-24T17:47:45.287Z,2.16
2023-02-24T17:50:12.428Z,2.16
2023-02-24T17:52:40.595Z,2.24
2023-02-24T17:55:07.410Z,2.29
2023-02-24T17:57:34.581Z,2.44
2023-02-24T18:00:00.627Z,2.48
2023-02-24T18:02:26.606Z,2.26
2023-02-24T18:04:53.612Z,2.33
2023-02-24T18:07:20.691Z,2.35
2023-02-24T18:09:46.635Z,2.29
2023-02-24T18:12:12.601Z,2.37
2023-02-24T18:14:38.536Z,2.41
2023-02-24T18:17:04.439Z,2.42
2023-02-24T18:19:30.291Z,2.38
2023-02-24T18:21:56.180Z,2.40
2023-02-24T18:24:22.243Z,2.39
2023-02-24T18:26:48.749Z,2.51
2023-02-24T18:29:14.971Z,2.41
2023-02-24T18:31:41.148Z,2.45
2023-02-24T18:34:07.175Z,2.49
2023-02-24T18:36:33.272Z,2.56
2023-02-24T18:38:59.559Z,2.52
2023-02-24T18:41:25.842Z,2.49
2023-02-24T18:43:54.355Z,2.50
2023-02-24T18:46:21.465Z,2.52
2023-02-24T18:48:49.671Z,2.35
2023-02-24T18:51:21.232Z,2.40
2023-02-24T18:53:47.751Z,2.37
2023-02-24T18:56:20.998Z,2.32
2023-02-24T18:58:52.076Z,2.19
2023-02-24T19:01:20.765Z,2.08
2023-02-24T19:03:48.130Z,2.04
2023-02-24T19:06:14.719Z,1.97
2023-02-24T19:08:41.472Z,1.91
2023-02-24T19:11:13.453Z,1.89
2023-02-24T19:13:40.126Z,1.85
2023-02-24T19:16:06.794Z,1.84
2023-02-24T19:18:32.961Z,1.94
2023-02-24T19:20:59.197Z,1.94
2023-02-24T19:23:25.189Z,1.87
2023-02-24T19:25:51.598Z,1.92
2023-02-24T19:28:17.871Z,2.07
2023-02-24T19:30:44.350Z,2.00
2023-02-24T19:33:10.541Z,2.04
2023-02-24T19:35:41.513Z,1.98
2023-02-24T19:38:08.893Z,1.97
2023-02-24T19:40:35.984Z,1.89
2023-02-24T19:43:01.990Z,1.93
2023-02-24T19:45:28.162Z,2.04
2023-02-24T19:47:54.310Z,2.01
2023-02-24T19:50:20.286Z,1.94
2023-02-24T19:52:46.200Z,2.02
2023-02-24T19:55:12.964Z,2.07
2023-02-24T19:57:38.991Z,2.10
2023-02-24T20:00:06.446Z,2.00
2023-02-24T20:02:32.449Z,2.15
2023-02-24T20:04:58.780Z,2.11
2023-02-24T20:07:25.035Z,2.08
2023-02-24T20:09:51.097Z,2.18
2023-02-24T20:12:17.114Z,2.05
2023-02-24T20:14:43.237Z,2.11
2023-02-24T20:17:09.399Z,2.06
2023-02-24T20:19:35.718Z,2.08
2023-02-24T20:22:01.729Z,2.06
2023-02-24T20:24:27.768Z,1.99
2023-02-24T20:26:53.853Z,1.98
2023-02-24T20:29:21.078Z,1.95
2023-02-24T20:31:48.077Z,2.02
2023-02-24T20:34:16.028Z,2.04
2023-02-24T20:36:43.238Z,2.06
2023-02-24T20:39:11.934Z,2.10
2023-02-24T20:41:40.029Z,2.13
2023-02-24T20:44:07.666Z,2.11
2023-02-24T20:46:33.805Z,2.05
2023-02-24T20:49:03.390Z,2.11
2023-02-24T20:51:30.838Z,2.13
2023-02-24T20:53:58.777Z,1.98
2023-02-24T20:56:33.444Z,2.02
2023-02-24T20:59:03.095Z,2.19
2023-02-24T21:01:30.764Z,2.18
2023-02-24T21:03:56.953Z,2.19
2023-02-24T21:06:23.578Z,2.14
2023-02-24T21:08:51.849Z,2.16
2023-02-24T21:11:18.239Z,2.11
2023-02-24T21:13:47.094Z,2.08
2023-02-24T21:16:15.173Z,2.18
2023-02-24T21:18:43.001Z,2.13
2023-02-24T21:21:09.916Z,2.17
2023-02-24T21:23:38.158Z,2.10
2023-02-24T21:26:06.038Z,2.06
2023-02-24T21:28:32.871Z,2.11
2023-02-24T21:30:59.447Z,2.15
2023-02-24T21:33:25.445Z,2.06
2023-02-24T21:36:02.642Z,2.20
2023-02-24T21:38:33.448Z,2.07
2023-02-24T21:41:04.464Z,2.06
2023-02-24T21:43:31.977Z,2.09
2023-02-24T21:46:05.173Z,2.09
2023-02-24T21:48:34.562Z,2.02
2023-02-24T21:51:12.121Z,1.98
2023-02-24T21:53:40.469Z,2.10
2023-02-24T21:56:15.623Z,2.10
2023-02-24T21:58:59.423Z,1.97
2023-02-24T22:01:31.712Z,2.08
2023-02-24T22:04:00.982Z,2.10
2023-02-24T22:06:31.009Z,2.05
2023-02-24T22:08:57.531Z,2.03
2023-02-24T22:11:23.563Z,1.85
2023-02-24T22:13:49.898Z,1.77
2023-02-24T22:16:21.400Z,1.83
2023-02-24T22:18:48.762Z,1.90
2023-02-24T22:21:17.855Z,2.01
2023-02-24T22:23:45.153Z,1.83
2023-02-24T22:26:12.274Z,1.69
2023-02-24T22:28:40.909Z,1.78
2023-02-24T22:31:09.020Z,1.82
2023-02-24T22:33:37.436Z,1.79
2023-02-24T22:36:09.663Z,1.73
2023-02-24T22:38:37.405Z,1.71
2023-02-24T22:41:06.298Z,1.78
2023-02-24T22:43:32.555Z,1.81
2023-02-24T22:46:00.540Z,1.86
2023-02-24T22:48:27.461Z,1.78
2023-02-24T22:50:55.636Z,1.72
2023-02-24T22:53:22.814Z,1.72
2023-02-24T22:55:49.136Z,1.66
2023-02-24T22:58:17.682Z,1.77
2023-02-24T23:00:47.507Z,1.75
2023-02-24T23:03:16.318Z,1.72
2023-02-24T23:05:52.717Z,1.66
2023-02-24T23:08:20.027Z,1.75
2023-02-24T23:10:45.895Z,1.70
2023-02-24T23:13:11.983Z,1.73
2023-02-24T23:15:38.808Z,1.77
2023-02-24T23:18:05.219Z,1.62
2023-02-24T23:20:37.490Z,1.86
2023-02-24T23:23:03.789Z,1.72
2023-02-24T23:25:29.686Z,1.79
2023-02-24T23:27:55.573Z,1.88
2023-02-24T23:30:22.845Z,1.82
2023-02-24T23:32:48.804Z,1.87
2023-02-24T23:35:14.895Z,1.76
2023-02-24T23:37:41.006Z,1.75
2023-02-24T23:40:14.124Z,1.71
2023-02-24T23:42:43.386Z,1.63
2023-02-24T23:45:10.356Z,1.56
2023-02-24T23:47:36.658Z,1.61
2023-02-24T23:50:03.430Z,1.69
2023-02-24T23:52:29.430Z,1.58
2023-02-24T23:54:55.345Z,1.59
2023-02-24T23:57:21.800Z,1.57
2023-02-24T23:59:47.812Z,1.51
